Terminal Aerodrome Forecast
Issued by NWS

Home | Current Version | Previous Version | Text Only | Print | Product List | Glossary On
Versions: 1 2 3 4 5 6 7 8 9 10 11 12 13 14
413
FTUS46 KLOX 102345
TAFBUR
TAF
KBUR 102345Z 1100/1124 VRB03KT P6SM BKN250
     FM110200 34005KT P6SM BKN250
     FM110600 VRB03KT P6SM BKN250
     FM112200 16008KT P6SM BKN250=

USA.gov is the U.S. government's official web portal to all federal, state and local government web resources and services.